createdAt,value
2022-08-10T00:00:29.810Z,59.71
2022-08-10T00:03:35.513Z,59.93
2022-08-10T00:06:37.756Z,59.88
2022-08-10T00:09:50.976Z,59.50
2022-08-10T00:12:55.241Z,60.01
2022-08-10T00:15:57.655Z,59.92
2022-08-10T00:18:59.802Z,59.31
2022-08-10T00:22:01.841Z,59.67
2022-08-10T00:25:04.812Z,59.32
2022-08-10T00:28:06.943Z,59.15
2022-08-10T00:31:08.919Z,59.22
2022-08-10T00:34:10.959Z,59.94
2022-08-10T00:37:14.867Z,59.77
2022-08-10T00:40:17.021Z,59.93
2022-08-10T00:43:23.180Z,60.18
2022-08-10T00:46:26.084Z,60.37
2022-08-10T00:49:28.940Z,59.61
2022-08-10T00:52:31.924Z,60.08
2022-08-10T00:55:34.247Z,60.66
2022-08-10T00:58:56.327Z,59.46
2022-08-10T01:02:08.539Z,60.02
2022-08-10T01:05:14.750Z,59.91
2022-08-10T01:08:24.875Z,60.50
2022-08-10T01:12:38.476Z,60.11
2022-08-10T01:15:17.234Z,60.10
2022-08-10T01:18:33.701Z,60.28
2022-08-10T01:21:41.884Z,59.45
2022-08-10T01:25:28.479Z,60.51
2022-08-10T01:28:49.278Z,59.65
2022-08-10T01:31:57.148Z,60.47
2022-08-10T01:35:30.581Z,60.41
2022-08-10T01:38:36.253Z,60.16
2022-08-10T01:41:46.454Z,59.86
2022-08-10T01:45:10.475Z,59.51
2022-08-10T01:48:31.000Z,59.75
2022-08-10T01:52:00.521Z,59.94
2022-08-10T01:55:03.774Z,59.59
2022-08-10T01:58:07.841Z,60.27
2022-08-10T02:01:17.065Z,59.78
2022-08-10T02:04:21.040Z,59.63
2022-08-10T02:07:27.799Z,59.66
2022-08-10T02:10:31.713Z,60.04
2022-08-10T02:13:34.775Z,61.04
2022-08-10T02:16:39.747Z,60.90
2022-08-10T02:19:43.382Z,60.72
2022-08-10T02:22:50.357Z,59.96
2022-08-10T02:25:55.737Z,60.35
2022-08-10T02:28:58.244Z,59.74
2022-08-10T02:32:00.515Z,59.50
2022-08-10T02:35:06.291Z,60.68
2022-08-10T02:38:10.335Z,60.62
2022-08-10T02:42:18.050Z,59.41
2022-08-10T02:45:31.084Z,59.88
2022-08-10T02:48:46.374Z,60.67
2022-08-10T02:52:11.334Z,60.51
2022-08-10T02:55:27.380Z,60.32
2022-08-10T02:58:44.947Z,60.25
2022-08-10T03:01:50.061Z,58.97
2022-08-10T03:04:57.709Z,59.56
2022-08-10T03:08:03.470Z,60.12
2022-08-10T03:11:08.889Z,59.80
2022-08-10T03:14:12.167Z,59.88
2022-08-10T03:17:17.057Z,59.98
2022-08-10T03:20:36.774Z,59.92
2022-08-10T03:23:43.496Z,60.08
2022-08-10T03:26:45.519Z,60.64
2022-08-10T03:30:28.477Z,60.83
2022-08-10T03:33:12.151Z,59.79
2022-08-10T03:36:41.526Z,60.44
2022-08-10T03:39:36.422Z,59.96
2022-08-10T03:42:40.720Z,59.93
2022-08-10T03:45:54.270Z,60.16
2022-08-10T03:49:02.082Z,60.57
2022-08-10T03:52:06.555Z,59.89
2022-08-10T03:55:09.517Z,59.81
2022-08-10T03:58:12.656Z,59.88
2022-08-10T04:01:16.249Z,60.33
2022-08-10T04:04:24.222Z,59.74
2022-08-10T04:07:28.493Z,60.79
2022-08-10T04:10:30.585Z,59.86
2022-08-10T04:13:32.745Z,60.18
2022-08-10T04:16:34.822Z,60.12
2022-08-10T04:19:47.775Z,61.23
2022-08-10T04:22:56.192Z,61.41
2022-08-10T04:25:59.240Z,61.38
2022-08-10T04:29:01.434Z,60.92
2022-08-10T04:32:05.050Z,60.17
2022-08-10T04:35:10.985Z,60.37
2022-08-10T04:38:14.811Z,59.82
2022-08-10T04:41:17.345Z,60.33
2022-08-10T04:44:19.345Z,59.22
2022-08-10T04:48:00.926Z,60.24
2022-08-10T04:50:43.762Z,59.56
2022-08-10T04:54:04.905Z,60.27
2022-08-10T04:57:09.538Z,59.43
2022-08-10T05:00:18.028Z,58.82
2022-08-10T05:03:21.345Z,59.48
2022-08-10T05:06:23.344Z,59.15
2022-08-10T05:09:25.385Z,60.85
2022-08-10T05:12:28.063Z,60.22
2022-08-10T05:15:30.315Z,59.98
2022-08-10T05:18:32.317Z,59.84
2022-08-10T05:22:03.669Z,59.62
2022-08-10T05:24:56.381Z,59.69
2022-08-10T05:28:00.963Z,60.76
2022-08-10T05:31:05.284Z,60.99
2022-08-10T05:34:20.458Z,59.54
2022-08-10T05:38:12.166Z,59.22
2022-08-10T05:40:48.331Z,58.91
2022-08-10T05:43:51.593Z,58.57
2022-08-10T05:46:53.982Z,59.16
2022-08-10T05:49:56.223Z,59.10
2022-08-10T05:53:00.613Z,58.55
2022-08-10T05:56:08.650Z,58.61
2022-08-10T05:59:12.916Z,58.71
2022-08-10T06:02:44.028Z,58.30
2022-08-10T06:05:47.786Z,58.50
2022-08-10T06:08:51.316Z,59.57
2022-08-10T06:12:28.531Z,59.10
2022-08-10T06:15:21.693Z,59.59
2022-08-10T06:18:42.135Z,58.61
2022-08-10T06:22:00.772Z,57.90
2022-08-10T06:25:32.379Z,58.91
2022-08-10T06:28:31.645Z,57.11
2022-08-10T06:31:49.066Z,59.17
2022-08-10T06:34:57.660Z,59.09
2022-08-10T06:38:03.105Z,58.53
2022-08-10T06:41:19.971Z,57.66
2022-08-10T06:44:28.644Z,58.52
2022-08-10T06:47:47.307Z,58.33
2022-08-10T06:50:58.144Z,58.66
2022-08-10T06:54:04.709Z,59.12
2022-08-10T06:57:17.631Z,58.94
2022-08-10T07:00:20.572Z,58.86
2022-08-10T07:03:31.928Z,58.05
2022-08-10T07:06:36.352Z,58.20
2022-08-10T07:09:40.906Z,58.87
2022-08-10T07:12:44.596Z,58.19
2022-08-10T07:15:59.766Z,58.77
2022-08-10T07:19:03.591Z,58.73
2022-08-10T07:22:07.717Z,59.27
2022-08-10T07:25:12.593Z,59.11
2022-08-10T07:28:15.686Z,58.85
2022-08-10T07:31:55.495Z,58.55
2022-08-10T07:34:45.073Z,59.38
2022-08-10T07:37:49.602Z,58.90
2022-08-10T07:40:53.664Z,59.09
2022-08-10T07:43:57.046Z,59.06
2022-08-10T07:47:04.196Z,58.44
2022-08-10T07:50:10.740Z,60.12
2022-08-10T07:53:20.305Z,59.98
2022-08-10T07:56:47.920Z,59.22
2022-08-10T07:59:56.210Z,59.11
2022-08-10T08:02:59.528Z,59.36
2022-08-10T08:06:11.530Z,58.85
2022-08-10T08:09:14.827Z,58.86
2022-08-10T08:12:18.099Z,58.63
2022-08-10T08:16:17.418Z,58.73
2022-08-10T08:19:03.810Z,59.25
2022-08-10T08:24:09.792Z,59.75
2022-08-10T08:25:33.743Z,59.15
2022-08-10T08:28:36.750Z,59.94
2022-08-10T08:31:54.299Z,59.95
2022-08-10T08:35:08.809Z,60.06
2022-08-10T08:38:31.509Z,59.28
2022-08-10T08:41:51.721Z,59.18
2022-08-10T08:45:18.371Z,59.33
2022-08-10T08:48:20.406Z,60.15
2022-08-10T08:52:07.801Z,60.05
2022-08-10T08:56:05.172Z,60.39
2022-08-10T08:59:26.667Z,60.20
2022-08-10T09:02:35.204Z,59.57
2022-08-10T09:06:08.148Z,59.83
2022-08-10T09:09:28.172Z,59.28
2022-08-10T09:12:52.091Z,60.33
2022-08-10T09:16:14.034Z,59.86
2022-08-10T09:19:36.578Z,59.41
2022-08-10T09:22:51.654Z,59.36
2022-08-10T09:25:59.541Z,59.99
2022-08-10T09:29:12.734Z,58.93
2022-08-10T09:36:15.818Z,59.36
2022-08-10T09:36:31.967Z,59.56
2022-08-10T09:40:56.067Z,59.82
2022-08-10T09:43:53.018Z,60.38
2022-08-10T09:47:20.129Z,60.59
2022-08-10T09:54:59.880Z,59.58
2022-08-10T09:58:27.039Z,58.54
2022-08-10T10:02:04.068Z,59.29
2022-08-10T10:05:50.066Z,59.80
2022-08-10T10:09:18.634Z,60.37
2022-08-10T10:12:47.235Z,58.94
2022-08-10T10:16:07.543Z,60.14
2022-08-10T10:19:18.836Z,59.29
2022-08-10T10:22:59.379Z,58.92
2022-08-10T10:26:42.883Z,58.73
2022-08-10T10:30:04.644Z,58.93
2022-08-10T10:33:15.182Z,59.67
2022-08-10T10:36:19.636Z,59.19
2022-08-10T10:39:24.760Z,60.35
2022-08-10T10:43:19.542Z,59.97
2022-08-10T10:46:40.055Z,58.96
2022-08-10T10:50:01.436Z,60.04
2022-08-10T10:53:28.656Z,59.90
2022-08-10T10:56:49.597Z,60.51
2022-08-10T11:00:09.669Z,59.47
2022-08-10T11:03:50.925Z,60.31
2022-08-10T11:07:13.134Z,59.22
2022-08-10T11:10:31.968Z,59.16
2022-08-10T11:14:24.550Z,59.35
2022-08-10T11:17:22.553Z,59.88
2022-08-10T11:20:33.304Z,59.31
2022-08-10T11:23:44.047Z,59.55
2022-08-10T11:26:55.599Z,59.74
2022-08-10T11:30:04.656Z,59.44
2022-08-10T11:33:33.664Z,59.93
2022-08-10T11:36:44.702Z,59.54
2022-08-10T11:39:59.764Z,58.90
2022-08-10T11:43:38.246Z,59.58
2022-08-10T11:46:53.653Z,58.98
2022-08-10T11:50:14.975Z,59.49
2022-08-10T11:53:26.941Z,59.23
2022-08-10T11:56:51.701Z,59.52
2022-08-10T11:59:57.682Z,59.26
2022-08-10T12:03:06.021Z,59.58
2022-08-10T12:06:13.592Z,60.14
2022-08-10T12:10:11.306Z,59.94
2022-08-10T12:12:54.412Z,60.59
2022-08-10T12:16:09.791Z,59.42
2022-08-10T12:20:06.680Z,59.19
2022-08-10T12:23:17.215Z,58.93
2022-08-10T12:26:25.591Z,59.63
2022-08-10T12:29:41.204Z,60.22
2022-08-10T12:32:53.939Z,60.07
2022-08-10T12:36:17.935Z,59.46
2022-08-10T12:39:28.165Z,60.66
2022-08-10T12:43:13.025Z,60.62
2022-08-10T12:46:39.217Z,60.39
2022-08-10T12:50:29.473Z,60.25
2022-08-10T12:53:56.838Z,60.06
2022-08-10T12:57:01.820Z,59.97
2022-08-10T13:00:17.533Z,60.20
2022-08-10T13:04:19.960Z,60.30
2022-08-10T13:06:51.409Z,59.73
2022-08-10T13:09:56.362Z,59.86
2022-08-10T13:13:00.439Z,60.62
2022-08-10T13:16:04.323Z,59.49
2022-08-10T13:19:07.015Z,59.20
2022-08-10T13:22:10.228Z,59.66
2022-08-10T13:25:15.533Z,59.53
2022-08-10T13:28:36.974Z,59.99
2022-08-10T13:32:03.740Z,59.13
2022-08-10T13:35:12.694Z,59.34
2022-08-10T13:38:21.065Z,59.06
2022-08-10T13:41:38.757Z,59.07
2022-08-10T13:44:44.931Z,58.60
2022-08-10T13:47:51.177Z,59.38
2022-08-10T13:50:58.902Z,58.24
2022-08-10T13:54:02.160Z,57.86
2022-08-10T13:57:06.867Z,58.74
2022-08-10T14:00:37.331Z,57.87
2022-08-10T14:03:41.328Z,57.99
2022-08-10T14:07:21.494Z,59.05
2022-08-10T14:11:09.253Z,57.88
2022-08-10T14:14:04.913Z,58.52
2022-08-10T14:17:07.743Z,57.90
2022-08-10T14:20:14.818Z,58.52
2022-08-10T14:23:19.013Z,59.29
2022-08-10T14:26:28.288Z,58.48
2022-08-10T14:29:31.652Z,58.63
2022-08-10T14:32:42.396Z,58.16
2022-08-10T14:36:22.703Z,58.81
2022-08-10T14:39:14.983Z,59.04
2022-08-10T14:42:37.679Z,58.34
2022-08-10T14:45:43.965Z,59.22
2022-08-10T14:48:48.521Z,59.31
2022-08-10T14:51:51.799Z,59.31
2022-08-10T14:55:04.751Z,59.17
2022-08-10T14:58:20.399Z,59.46
2022-08-10T15:01:24.727Z,59.05
2022-08-10T15:04:29.292Z,58.88
2022-08-10T15:07:33.465Z,58.50
2022-08-10T15:10:37.856Z,59.08
2022-08-10T15:14:12.472Z,59.73
2022-08-10T15:17:09.232Z,58.95
2022-08-10T15:20:23.654Z,59.60
2022-08-10T15:23:30.647Z,58.97
2022-08-10T15:26:35.845Z,59.95
2022-08-10T15:29:56.587Z,59.43
2022-08-10T15:33:57.511Z,59.53
2022-08-10T15:37:47.367Z,59.62
2022-08-10T15:40:37.443Z,59.61
2022-08-10T15:43:55.045Z,59.31
2022-08-10T15:47:02.607Z,60.16
2022-08-10T15:50:18.543Z,59.18
2022-08-10T15:53:30.762Z,59.44
2022-08-10T15:56:43.338Z,60.32
2022-08-10T15:59:55.256Z,59.26
2022-08-10T16:03:03.324Z,59.65
2022-08-10T16:06:07.039Z,59.06
2022-08-10T16:10:22.540Z,60.28
2022-08-10T16:12:59.871Z,59.42
2022-08-10T16:16:07.489Z,59.53
2022-08-10T16:19:25.089Z,59.24
2022-08-10T16:22:35.386Z,59.58
2022-08-10T16:25:48.343Z,59.02
2022-08-10T16:28:59.942Z,60.29
2022-08-10T16:32:04.499Z,60.30
2022-08-10T16:35:09.892Z,59.85
2022-08-10T16:38:13.583Z,59.69
2022-08-10T16:42:00.573Z,59.21
2022-08-10T16:45:09.926Z,59.66
2022-08-10T16:48:15.398Z,59.81
2022-08-10T16:51:38.793Z,60.22
2022-08-10T16:54:43.032Z,59.48
2022-08-10T16:57:55.984Z,60.24
2022-08-10T17:01:06.370Z,59.21
2022-08-10T17:04:10.381Z,59.70
2022-08-10T17:07:16.238Z,59.48
2022-08-10T17:10:20.362Z,59.67
2022-08-10T17:13:30.123Z,59.51
2022-08-10T17:16:35.620Z,60.74
2022-08-10T17:19:42.493Z,60.49
2022-08-10T17:22:46.005Z,60.03
2022-08-10T17:25:50.915Z,60.36
2022-08-10T17:28:56.759Z,60.58
2022-08-10T17:32:08.216Z,60.05
2022-08-10T17:35:22.540Z,59.63
2022-08-10T17:38:30.861Z,59.89
2022-08-10T17:41:34.846Z,60.73
2022-08-10T17:44:39.073Z,60.87
2022-08-10T17:47:48.910Z,60.17
2022-08-10T17:50:53.147Z,60.66
2022-08-10T17:54:00.535Z,59.89
2022-08-10T17:57:10.048Z,59.87
2022-08-10T18:00:14.364Z,60.83
2022-08-10T18:03:25.660Z,60.33
2022-08-10T18:06:29.982Z,60.16
2022-08-10T18:09:39.436Z,60.40
2022-08-10T18:12:55.535Z,60.02
2022-08-10T18:15:58.739Z,60.83
2022-08-10T18:19:09.442Z,60.54
2022-08-10T18:22:13.593Z,60.44
2022-08-10T18:25:23.331Z,60.95
2022-08-10T18:28:27.006Z,60.28
2022-08-10T18:31:31.397Z,60.62
2022-08-10T18:34:36.569Z,61.13
2022-08-10T18:37:40.940Z,60.98
2022-08-10T18:40:51.078Z,60.94
2022-08-10T18:44:11.639Z,60.23
2022-08-10T18:47:41.315Z,60.98
2022-08-10T18:51:05.954Z,60.11
2022-08-10T18:54:39.428Z,60.27
2022-08-10T18:58:04.575Z,60.48
2022-08-10T19:01:37.170Z,61.32
2022-08-10T19:05:03.792Z,60.28
2022-08-10T19:08:49.404Z,61.27
2022-08-10T19:12:29.713Z,60.12
2022-08-10T19:15:37.138Z,60.98
2022-08-10T19:19:00.172Z,61.08
2022-08-10T19:22:09.413Z,61.57
2022-08-10T19:26:41.045Z,60.47
2022-08-10T19:30:04.976Z,61.03
2022-08-10T19:33:06.002Z,61.18
2022-08-10T19:36:32.366Z,61.15
2022-08-10T19:40:19.473Z,61.23
2022-08-10T19:44:09.425Z,61.14
2022-08-10T19:47:26.392Z,61.43
2022-08-10T19:50:37.397Z,60.33
2022-08-10T19:54:03.207Z,60.48
2022-08-10T19:57:20.536Z,60.57
2022-08-10T20:00:29.473Z,60.60
2022-08-10T20:03:41.720Z,60.62
2022-08-10T20:06:54.836Z,61.24
2022-08-10T20:10:03.999Z,61.93
2022-08-10T20:13:22.096Z,61.44
2022-08-10T20:16:31.883Z,60.64
2022-08-10T20:19:53.977Z,60.92
2022-08-10T20:23:11.374Z,61.03
2022-08-10T20:26:20.834Z,60.72
2022-08-10T20:29:58.604Z,60.81
2022-08-10T20:33:07.798Z,60.79
2022-08-10T20:36:15.575Z,60.23
2022-08-10T20:40:04.741Z,61.44
2022-08-10T20:43:16.267Z,60.82
2022-08-10T20:46:25.053Z,60.79
2022-08-10T20:49:53.617Z,60.50
2022-08-10T20:52:59.739Z,60.76
2022-08-10T20:57:54.309Z,61.28
2022-08-10T21:01:16.962Z,61.40
2022-08-10T21:04:51.602Z,60.62
2022-08-10T21:08:16.563Z,61.46
2022-08-10T21:11:39.626Z,61.07
2022-08-10T21:15:08.985Z,60.62
2022-08-10T21:18:28.764Z,61.21
2022-08-10T21:21:59.070Z,60.85
2022-08-10T21:25:06.653Z,60.65
2022-08-10T21:28:50.084Z,60.98
2022-08-10T21:32:13.111Z,60.75
2022-08-10T21:35:36.557Z,60.54
2022-08-10T21:38:51.685Z,60.30
2022-08-10T21:42:37.368Z,61.02
2022-08-10T21:46:08.204Z,61.41
2022-08-10T21:49:37.020Z,60.36
2022-08-10T21:53:12.282Z,61.36
2022-08-10T21:56:51.432Z,60.64
2022-08-10T22:00:27.496Z,61.26
2022-08-10T22:03:53.929Z,61.25
2022-08-10T22:07:17.854Z,60.78
2022-08-10T22:10:47.960Z,60.82
2022-08-10T22:14:11.016Z,61.19
2022-08-10T22:18:01.185Z,60.93
2022-08-10T22:21:31.324Z,61.20
2022-08-10T22:25:21.454Z,60.35
2022-08-10T22:28:42.526Z,60.36
2022-08-10T22:32:21.016Z,60.08
2022-08-10T22:36:15.719Z,60.39
2022-08-10T22:40:11.389Z,61.12
2022-08-10T22:43:40.796Z,60.19
2022-08-10T22:47:03.201Z,60.99
2022-08-10T22:50:07.888Z,61.02
2022-08-10T22:53:16.947Z,60.46
2022-08-10T22:56:40.040Z,61.06
2022-08-10T22:59:42.276Z,61.47
2022-08-10T23:02:58.130Z,60.91
2022-08-10T23:06:14.910Z,60.96
2022-08-10T23:09:22.190Z,61.26
2022-08-10T23:12:34.151Z,60.53
2022-08-10T23:15:58.325Z,60.93
2022-08-10T23:19:10.035Z,60.25
2022-08-10T23:22:15.105Z,60.24
2022-08-10T23:25:22.876Z,60.62
2022-08-10T23:28:39.206Z,60.39
2022-08-10T23:32:06.509Z,60.47
2022-08-10T23:36:30.006Z,60.00
2022-08-10T23:38:41.510Z,59.75
2022-08-10T23:41:46.780Z,60.20
2022-08-10T23:44:58.689Z,60.48
2022-08-10T23:48:02.042Z,60.29
2022-08-10T23:51:16.998Z,60.49
2022-08-10T23:54:22.570Z,59.74
2022-08-10T23:57:28.196Z,60.60
